• Join FlightAware (Why Join?)
  • Login
  • US Flag 
05:52PM EDT


 

Airport Tracker/Info


-or-


 

Live Flight TrackerFlight Track Log ✈ AAL1890 ✈ 26-Apr-2013 ✈ KDFW - KBOS

Flight Track Log - Related Links

Times and Time Zones

All times are in EDT time to prevent confusion due to time zone crossing. See the AAL1890 flight status page for this flight to view local times or setup timezone preferences in your user account.

Time Position Orientation Groundspeed Altitude Reporting Facility
EDT Latitude Longitude Course Direction KTS MPH feet Rate Location/Type
03:10PM 32.8500 -97.0333 67° East 183 211 3,300  Level Dallas / Fort Worth TRACON
03:11PM 32.8000 -97.0000 151° Southeast 220 253 6,100 2,340 Climbing Dallas / Fort Worth TRACON
03:12PM 32.8006 -96.7150 68° East  Level FlightAware Approximate
03:13PM 32.8568 -96.5866 59° Northeast  Level FlightAware Approximate
03:13PM 32.7694 -96.8550 104° East 322 371 9,900  Level Fort Worth Center
03:14PM 32.9149 -96.4591 67° East  Level FlightAware Approximate
03:14PM 32.8064 -96.7386 69° East 316 364 11,000  Level Fort Worth Center
03:15PM 32.9634 -96.3258 67° East  Level FlightAware Approximate
03:15PM 32.8558 -96.6219 63° Northeast 371 427 13,100  Level Fort Worth Center
03:16PM 32.9031 -96.5028 65° Northeast 390 449 14,800 1,740 Climbing Fort Worth Center
03:17PM 32.9522 -96.3761 65° Northeast 411 473 16,600 1,560 Climbing Fort Worth Center
03:18PM 32.9825 -96.2394 75° East 427 491 18,000 1,560 Climbing Fort Worth Center
03:19PM 33.0019 -96.0931 81° East 444 511 19,800 1,800 Climbing Fort Worth Center
03:20PM 33.0272 -95.9392 79° East 458 527 21,600 1,800 Climbing Fort Worth Center
03:21PM 33.0442 -95.7828 83° East 472 543 23,500 1,740 Climbing Fort Worth Center
03:22PM 33.0650 -95.6211 81° East 484 557 25,100 1,440 Climbing Fort Worth Center
03:23PM 33.0961 -95.4817 75° East 484 557 26,400 1,440 Climbing Fort Worth Center
03:24PM 33.1439 -95.3244 70° East 489 563 28,000 1,620 Climbing Fort Worth Center
03:25PM 33.1931 -95.1619 70° East 502 578 29,700 1,560 Climbing Fort Worth Center
03:26PM 33.2403 -95.0017 71° East 507 583 31,200 1,560 Climbing Fort Worth Center
03:27PM 33.2894 -94.8414 70° East 507 583 32,900 1,560 Climbing Fort Worth Center
03:28PM 33.3361 -94.6833 70° East 507 583 34,400 1,440 Climbing Fort Worth Center
03:29PM 33.3847 -94.5203 70° East 507 583 35,800 1,140 Climbing Fort Worth Center
03:30PM 33.4308 -94.3594 71° East 507 583 36,700 600 Climbing Fort Worth Center
03:31PM 33.4853 -94.1981 68° East 507 583 37,100 120 Climbing Fort Worth Center
03:32PM 33.5372 -94.0317 69° East 518 596 37,000 -60 Descending Fort Worth Center
03:33PM 33.5994 -93.8600 66° East 518 596 37,000  Level Fort Worth Center
03:34PM 33.6614 -93.7000 65° Northeast 518 596 37,000  Level Fort Worth Center
03:35PM 33.7175 -93.5478 66° East 507 583 37,000  Level Fort Worth Center
03:36PM 33.7636 -93.4306 65° Northeast 499 574 37,000  Level Memphis Center
03:37PM 33.8236 -93.2778 65° Northeast 499 574 37,000  Level Memphis Center
03:38PM 33.8833 -93.1219 65° Northeast 499 574 37,000  Level Memphis Center
03:39PM 33.9431 -92.9661 65° Northeast 499 574 37,000  Level Memphis Center
03:40PM 34.0006 -92.8100 66° East 504 580 37,000  Level Memphis Center
03:41PM 34.0619 -92.6564 64° Northeast 504 580 37,000  Level Memphis Center
03:42PM 34.1192 -92.4822 68° East 499 574 37,000  Level Memphis Center
03:43PM 34.1761 -92.3256 66° East 499 574 37,000  Level Memphis Center
03:44PM 34.2328 -92.1711 66° East 499 574 37,000  Level Memphis Center
03:45PM 34.2889 -92.0214 66° East 494 568 37,000  Level Memphis Center
03:46PM 34.3453 -91.8689 66° East 500 575 37,000  Level Memphis Center
03:47PM 34.4011 -91.7189 66° East 495 570 37,000  Level Memphis Center
03:48PM 34.4569 -91.5661 66° East 489 563 37,000  Level Memphis Center
03:49PM 34.5083 -91.4308 65° Northeast 484 557 37,000  Level Memphis Center
03:50PM 34.5594 -91.2800 68° East 484 557 37,000  Level Memphis Center
03:51PM 34.6128 -91.1344 66° East 478 550 37,000  Level Memphis Center
03:52PM 34.6658 -90.9833 67° East 478 550 37,000  Level Memphis Center
03:53PM 34.7206 -90.8347 66° East 478 550 37,000  Level Memphis Center
03:54PM 34.7711 -90.6883 67° East 473 544 37,000  Level Memphis Center
03:55PM 34.8300 -90.5267 66° East 473 544 37,000  Level Memphis Center
03:56PM 34.8800 -90.3772 68° East 473 544 37,000  Level Memphis Center
03:57PM 34.9322 -90.2306 66° East 473 544 37,000  Level Memphis Center
03:58PM 34.9842 -90.0858 66° East 472 543 37,000  Level Memphis Center
03:59PM 35.0589 -89.9564 55° Northeast 464 534 37,000  Level Memphis Center
04:00PM 35.1669 -89.8769 31° Northeast 437 503 37,000  Level Memphis Center
04:01PM 35.2731 -89.7975 31° Northeast 442 509 37,000  Level Memphis Center
04:02PM 35.3686 -89.7231 32° Northeast 447 514 37,000  Level Memphis Center
04:03PM 35.4789 -89.6431 31° Northeast 452 520 37,000  Level Memphis Center
04:04PM 35.5908 -89.5606 31° Northeast 458 527 37,000  Level Memphis Center
04:05PM 35.7050 -89.4750 31° Northeast 458 527 37,000  Level Memphis Center
04:06PM 35.8150 -89.3894 32° Northeast 451 519 37,000  Level Memphis Center
04:07PM 35.9247 -89.3061 32° Northeast 456 525 37,000  Level Memphis Center
04:08PM 36.0386 -89.2225 31° Northeast 456 525 37,000  Level Memphis Center
04:09PM 36.1400 -89.1439 32° Northeast 469 540 37,000  Level Memphis Center
04:10PM 36.2561 -89.0572 31° Northeast 469 540 37,000  Level Memphis Center
04:11PM 36.3678 -88.9731 31° Northeast 469 540 37,000  Level Memphis Center
04:12PM 36.4833 -88.8858 31° Northeast 469 540 37,000  Level Memphis Center
04:13PM 36.5989 -88.7983 31° Northeast 469 540 37,000  Level Memphis Center
04:14PM 36.7147 -88.7133 30° Northeast 469 540 37,000  Level Memphis Center
04:15PM 36.8344 -88.6383 27° Northeast 474 545 37,000  Level Memphis Center
04:16PM 36.9564 -88.5681 25° Northeast 469 540 37,000  Level Memphis Center
04:17PM 37.0717 -88.4744 33° Northeast 476 548 37,000  Level Memphis Center
04:19PM 37.3131 -88.2725 34° Northeast 497 572 37,000  Level Indianapolis Center
04:20PM 37.4289 -88.1764 33° Northeast 496 571 37,000  Level Indianapolis Center
04:21PM 37.5469 -88.0797 33° Northeast 497 572 37,000  Level Indianapolis Center
04:22PM 37.6633 -87.9825 33° Northeast 496 571 37,000  Level Indianapolis Center
04:23PM 37.7983 -87.8711 33° Northeast 500 575 37,000  Level Indianapolis Center
04:24PM 37.9142 -87.7717 34° Northeast 500 575 37,000  Level Indianapolis Center
04:25PM 38.0108 -87.6386 47° Northeast 512 589 37,000  Level Indianapolis Center
04:26PM 38.0994 -87.4917 53° Northeast 521 600 37,000  Level Indianapolis Center
04:27PM 38.1906 -87.3489 51° Northeast 519 597 37,000  Level Indianapolis Center
04:28PM 38.2797 -87.2081 51° Northeast 517 595 37,000  Level Indianapolis Center
04:29PM 38.3864 -87.0408 51° Northeast 519 597 37,000  Level Indianapolis Center
04:30PM 38.4711 -86.9044 52° Northeast 519 597 37,000  Level Indianapolis Center
04:31PM 38.5617 -86.7586 52° Northeast 522 601 37,000  Level Indianapolis Center
04:32PM 38.6525 -86.6128 51° Northeast 521 600 37,000  Level Indianapolis Center
04:33PM 38.7428 -86.4667 52° Northeast 522 601 37,000  Level Indianapolis Center
04:34PM 38.8506 -86.2897 52° Northeast 523 602 37,000  Level Indianapolis Center
04:35PM 38.9444 -86.1358 52° Northeast 530 610 37,000  Level Indianapolis Center
04:36PM 39.0353 -85.9886 52° Northeast 527 606 37,000  Level Indianapolis Center
04:38PM 39.1267 -85.8383 52° Northeast 530 610 37,000  Level Indianapolis Center
04:39PM 39.2169 -85.6861 53° Northeast 532 612 37,000  Level Indianapolis Center
04:40PM 39.3078 -85.5344 52° Northeast 534 615 37,000  Level Indianapolis Center
04:41PM 39.4194 -85.3658 49° Northeast 529 609 37,000  Level Indianapolis Center
04:42PM 39.5158 -85.2203 49° Northeast 529 609 37,000  Level Indianapolis Center
04:43PM 39.6089 -85.0808 49° Northeast 514 592 37,100 660 Climbing Indianapolis Center
04:44PM 39.7008 -84.9444 49° Northeast 503 579 38,400 900 Climbing Indianapolis Center
04:45PM 39.7950 -84.8019 49° Northeast 496 571 39,000 240 Climbing Indianapolis Center
04:46PM 39.8822 -84.6647 50° Northeast 488 562 39,000  Level Indianapolis Center
04:47PM 39.9733 -84.5281 49° Northeast 491 565 39,000  Level Indianapolis Center
04:48PM 40.0639 -84.3894 49° Northeast 495 570 39,000  Level Indianapolis Center
04:49PM 40.1542 -84.2500 50° Northeast 496 571 39,000  Level Indianapolis Center
04:50PM 40.2614 -84.0850 50° Northeast 501 577 39,000  Level Indianapolis Center
04:51PM 40.3503 -83.9386 51° Northeast 505 581 39,000  Level Indianapolis Center
04:52PM 40.4358 -83.7872 53° Northeast 508 585 39,000  Level Indianapolis Center
04:53PM 40.5228 -83.6381 52° Northeast 507 583 39,000  Level Indianapolis Center
04:54PM 40.6089 -83.4897 53° Northeast 505 581 39,000  Level Indianapolis Center
04:55PM 40.6936 -83.3403 53° Northeast 505 581 39,000  Level Indianapolis Center
04:56PM 40.7817 -83.1875 53° Northeast 500 575 39,000  Level Indianapolis Center
04:57PM 40.8653 -83.0408 53° Northeast 496 571 39,000  Level Indianapolis Center
04:58PM 40.9500 -82.8925 53° Northeast 500 575 39,000  Level Indianapolis Center
04:59PM 41.0456 -82.7222 53° Northeast 497 572 39,000  Level Cleveland Center
05:00PM 41.1189 -82.5925 53° Northeast 497 572 39,000  Level Cleveland Center
05:01PM 41.2006 -82.4458 53° Northeast 497 572 39,000  Level Cleveland Center
05:02PM 41.2822 -82.2992 53° Northeast 497 572 39,000  Level Cleveland Center
05:03PM 41.3592 -82.1489 56° Northeast 497 572 39,000  Level Cleveland Center
05:04PM 41.4117 -81.9731 68° East 497 572 39,000  Level Cleveland Center
05:05PM 41.4700 -81.7803 68° East 512 589 39,000  Level Cleveland Center
05:06PM 41.5178 -81.6008 70° East 505 581 39,000  Level Cleveland Center
05:07PM 41.5692 -81.4214 69° East 505 581 39,000  Level Cleveland Center
05:08PM 41.6183 -81.2469 69° East 505 581 39,000  Level Cleveland Center
05:09PM 41.6628 -81.0861 70° East 510 587 39,000  Level Cleveland Center
05:10PM 41.7114 -80.9086 70° East 510 587 39,000  Level Cleveland Center
05:11PM 41.7597 -80.7333 70° East 504 580 39,000  Level Cleveland Center
05:12PM 41.8078 -80.5608 69° East 504 580 39,000  Level Cleveland Center
05:13PM 41.8536 -80.3881 70° East 499 574 39,000  Level Cleveland Center
05:14PM 41.9011 -80.2178 69° East 493 567 39,000  Level Cleveland Center
05:15PM 41.9525 -80.0303 70° East 488 562 39,000  Level Cleveland Center
05:16PM 41.9972 -79.8594 71° East 488 562 39,000  Level Cleveland Center
05:17PM 42.0419 -79.6856 71° East 488 562 39,000  Level Cleveland Center
05:18PM 42.0883 -79.5117 70° East 488 562 39,000  Level Cleveland Center
05:19PM 42.1325 -79.3372 71° East 488 562 39,000  Level Cleveland Center
05:20PM 42.1783 -79.1625 70° East 488 562 39,000  Level Cleveland Center
05:21PM 42.2094 -78.9742 77° East 488 562 39,000  Level Cleveland Center
05:22PM 42.2319 -78.8053 80° East 501 577 39,000  Level Cleveland Center
05:23PM 42.2539 -78.6167 81° East 506 582 39,000  Level Cleveland Center
05:24PM 42.2775 -78.4278 80° East 506 582 39,000  Level Cleveland Center
05:25PM 42.3008 -78.2389 80° East 506 582 39,000  Level Cleveland Center
05:26PM 42.3219 -78.0528 81° East 506 582 39,000  Level Cleveland Center
05:27PM 42.3486 -77.8439 80° East 506 582 39,000  Level Cleveland Center
05:28PM 42.3689 -77.6547 82° East 506 582 39,000  Level Cleveland Center
05:29PM 42.3889 -77.4681 82° East 506 582 39,000  Level Cleveland Center
05:31PM 42.4247 -77.1719 81° East 504 580 39,000  Level Boston Center
05:32PM 42.4450 -76.9819 82° East 499 574 39,000  Level Boston Center
05:33PM 42.4647 -76.7975 82° East 499 574 39,000  Level Boston Center
05:34PM 42.4864 -76.6133 81° East 499 574 39,000  Level Boston Center
05:35PM 42.5056 -76.4256 82° East 499 574 39,000  Level Boston Center
05:36PM 42.5244 -76.2408 82° East 499 574 39,000  Level Boston Center
05:37PM 42.5431 -76.0531 82° East 499 574 39,000  Level Boston Center
05:38PM 42.5611 -75.8708 82° East 499 574 39,000 -120 Level Boston Center
05:39PM 42.5811 -75.6886 81° East 499 574 38,800 -600 Descending Boston Center
05:40PM 42.5967 -75.5061 83° East 494 568 37,800 -900 Descending Boston Center
05:41PM 42.6142 -75.3181 83° East 494 568 37,000 -420 Descending Boston Center
05:42PM 42.6311 -75.1381 83° East 494 568 37,000 -360 Level Boston Center
05:43PM 42.6481 -74.9411 83° East 488 562 36,300 -900 Descending Boston Center
05:44PM 42.6644 -74.7556 83° East 488 562 35,300 -1,020 Descending Boston Center
05:45PM 42.6825 -74.5781 82° East 482 555 34,300 -960 Descending Boston Center
05:46PM 42.6983 -74.3922 83° East 482 555 33,400 -660 Descending Boston Center
05:47PM 42.7139 -74.2089 83° East 482 555 33,000 -240 Descending Boston Center
05:48PM 42.7292 -74.0258 83° East 482 555 33,000 -240 Level Boston Center
05:49PM 42.7419 -73.8422 85° East 482 555 32,600 -900 Descending Boston Center
05:50PM 42.7358 -73.6556 92° East 482 555 31,300 -1,320 Descending Boston Center
05:51PM 42.7167 -73.4686 98° East 482 555 30,000 -1,320 Descending Boston Center
05:52PM 42.6933 -73.2847 100° East 488 562 28,700 -1,380 Descending Boston Center
05:53PM 42.6736 -73.1036 98° East 488 562 27,300 -1,320 Descending Boston Center
05:54PM 42.6536 -72.9144 98° East 488 562 26,100 -1,200 Descending Boston Center
05:55PM 42.6333 -72.7478 99° East 481 554 24,900 -1,560 Descending Boston Center
05:56PM 42.6192 -72.5811 97° East 461 531 23,000 -2,160 Descending Boston Center
05:57PM 42.5900 -72.4119 103° East 449 517 20,600 -2,280 Descending Boston Center
05:58PM 42.5733 -72.2681 99° East 446 513 18,500 -2,100 Descending Boston Center
05:59PM 42.5500 -72.0992 101° East 418 481 16,500 -1,980 Descending Boston Center
06:00PM 42.5347 -71.9611 98° East 408 470 14,600 -1,860 Descending Boston Center
06:01PM 42.5217 -71.8006 96° East 403 464 12,800 -1,680 Descending Boston Center
06:02PM 42.5103 -71.6739 97° East 383 441 11,300 -1,380 Descending Boston Center
06:03PM 42.5000 -71.5167 95° East 353 406 10,100 -960 Descending KA90
06:04PM 42.4833 -71.3833 100° East 309 356 9,400 -720 Descending KA90
06:05PM 42.4667 -71.2833 103° East 300 345 8,600 -840 Descending KA90
06:06PM 42.4667 -71.1833 90° East 294 338 7,800 -840 Descending KA90
06:07PM 42.4500 -71.0833 103° East 276 318 7,100 -600 Descending KA90
06:08PM 42.4167 -71.0000 118° Southeast 234 269 6,700 -600 Descending KA90
06:09PM 42.3667 -70.9667 154° Southeast 229 264 6,000 -360 Descending KA90
06:10PM 42.3000 -70.9333 160° South 216 249 6,000 -60 Level KA90
06:11PM 42.2667 -70.9500 200° South 215 247 5,900 -480 Descending KA90
06:12PM 42.2000 -70.9833 200° South 217 250 5,100 -540 Descending KA90
06:13PM 42.1500 -71.0167 206° Southwest 211 243 4,900 -600 Descending KA90
06:14PM 42.1500 -71.0833 270° West 227 261 3,900 -960 Descending KA90